createdAt,value
2022-07-29T00:01:43.947Z,21.02
2022-07-29T00:04:13.158Z,21.04
2022-07-29T00:06:43.099Z,21.05
2022-07-29T00:09:11.085Z,21.04
2022-07-29T00:11:39.658Z,21.06
2022-07-29T00:14:07.615Z,21.06
2022-07-29T00:16:36.328Z,21.11
2022-07-29T00:19:05.229Z,21.13
2022-07-29T00:21:35.797Z,21.14
2022-07-29T00:24:05.411Z,21.16
2022-07-29T00:26:33.589Z,21.16
2022-07-29T00:29:32.595Z,21.13
2022-07-29T00:31:49.977Z,21.12
2022-07-29T00:34:35.446Z,21.07
2022-07-29T00:37:03.733Z,21.08
2022-07-29T00:39:32.926Z,21.10
2022-07-29T00:42:00.892Z,21.03
2022-07-29T00:44:29.004Z,21.05
2022-07-29T00:46:56.985Z,21.01
2022-07-29T00:49:24.967Z,21.02
2022-07-29T00:51:53.440Z,20.99
2022-07-29T00:54:21.391Z,20.97
2022-07-29T00:56:51.401Z,20.96
2022-07-29T00:59:19.596Z,20.91
2022-07-29T01:01:47.619Z,20.87
2022-07-29T01:04:15.984Z,20.84
2022-07-29T01:06:45.484Z,20.89
2022-07-29T01:09:14.974Z,20.88
2022-07-29T01:11:43.415Z,20.94
2022-07-29T01:14:14.286Z,20.97
2022-07-29T01:16:47.722Z,20.93
2022-07-29T01:19:44.928Z,20.99
2022-07-29T01:22:27.024Z,20.96
2022-07-29T01:25:12.190Z,20.97
2022-07-29T01:27:47.047Z,20.98
2022-07-29T01:30:17.172Z,20.94
2022-07-29T01:32:51.908Z,20.93
2022-07-29T01:35:24.934Z,20.98
2022-07-29T01:37:59.400Z,20.97
2022-07-29T01:40:33.203Z,20.99
2022-07-29T01:43:10.571Z,20.95
2022-07-29T01:45:43.636Z,20.93
2022-07-29T01:48:15.231Z,20.89
2022-07-29T01:50:49.384Z,20.87
2022-07-29T01:53:25.802Z,20.85
2022-07-29T01:55:54.915Z,20.87
2022-07-29T01:58:29.743Z,20.84
2022-07-29T02:01:00.397Z,20.82
2022-07-29T02:03:30.665Z,20.83
2022-07-29T02:06:00.332Z,20.80
2022-07-29T02:08:30.184Z,20.79
2022-07-29T02:10:59.852Z,20.79
2022-07-29T02:13:30.898Z,20.75
2022-07-29T02:16:02.507Z,20.73
2022-07-29T02:18:32.589Z,20.71
2022-07-29T02:21:02.774Z,20.70
2022-07-29T02:23:33.100Z,20.69
2022-07-29T02:26:19.949Z,20.66
2022-07-29T02:28:49.361Z,20.64
2022-07-29T02:31:21.615Z,20.58
2022-07-29T02:33:50.932Z,20.59
2022-07-29T02:36:22.894Z,20.56
2022-07-29T02:38:52.497Z,20.56
2022-07-29T02:41:24.881Z,20.54
2022-07-29T02:43:57.932Z,20.54
2022-07-29T02:46:33.244Z,20.54
2022-07-29T02:49:06.298Z,20.56
2022-07-29T02:51:45.185Z,20.53
2022-07-29T02:54:22.197Z,20.57
2022-07-29T02:56:53.557Z,20.57
2022-07-29T02:59:26.927Z,20.56
2022-07-29T03:01:57.792Z,20.52
2022-07-29T03:04:29.336Z,20.54
2022-07-29T03:07:01.250Z,20.55
2022-07-29T03:09:31.593Z,20.54
2022-07-29T03:12:00.700Z,20.53
2022-07-29T03:14:29.137Z,20.53
2022-07-29T03:17:00.396Z,20.52
2022-07-29T03:19:29.075Z,20.46
2022-07-29T03:21:59.012Z,20.39
2022-07-29T03:24:32.215Z,20.28
2022-07-29T03:27:01.655Z,20.19
2022-07-29T03:29:33.433Z,20.15
2022-07-29T03:32:07.263Z,20.20
2022-07-29T03:34:38.617Z,20.24
2022-07-29T03:37:07.838Z,20.28
2022-07-29T03:39:42.451Z,20.31
2022-07-29T03:42:13.784Z,20.33
2022-07-29T03:44:46.089Z,20.34
2022-07-29T03:47:17.113Z,20.30
2022-07-29T03:49:50.086Z,20.21
2022-07-29T03:52:18.997Z,20.07
2022-07-29T03:54:47.142Z,19.97
2022-07-29T03:57:17.906Z,19.96
2022-07-29T03:59:47.126Z,19.98
2022-07-29T04:02:21.717Z,20.01
2022-07-29T04:04:51.250Z,20.03
2022-07-29T04:07:19.151Z,20.06
2022-07-29T04:09:47.098Z,20.09
2022-07-29T04:12:15.317Z,20.14
2022-07-29T04:14:43.417Z,20.21
2022-07-29T04:17:11.434Z,20.26
2022-07-29T04:19:40.942Z,20.36
2022-07-29T04:22:08.805Z,20.44
2022-07-29T04:24:36.811Z,20.50
2022-07-29T04:27:05.270Z,20.58
2022-07-29T04:29:33.248Z,20.69
2022-07-29T04:32:01.165Z,20.75
2022-07-29T04:34:29.282Z,20.84
2022-07-29T04:36:58.546Z,20.94
2022-07-29T04:39:27.229Z,20.99
2022-07-29T04:41:58.981Z,21.08
2022-07-29T04:44:28.675Z,21.08
2022-07-29T04:46:58.880Z,21.16
2022-07-29T04:49:27.452Z,21.20
2022-07-29T04:51:55.588Z,21.34
2022-07-29T04:54:24.849Z,21.34
2022-07-29T04:56:54.572Z,21.39
2022-07-29T04:59:22.444Z,21.52
2022-07-29T05:01:50.841Z,21.71
2022-07-29T05:04:19.776Z,21.79
2022-07-29T05:06:48.201Z,21.95
2022-07-29T05:09:16.458Z,22.08
2022-07-29T05:11:47.315Z,22.25
2022-07-29T05:14:15.556Z,22.45
2022-07-29T05:16:44.343Z,22.68
2022-07-29T05:19:14.558Z,22.84
2022-07-29T05:21:43.165Z,23.07
2022-07-29T05:24:11.018Z,23.22
2022-07-29T05:26:39.669Z,23.37
2022-07-29T05:29:42.885Z,23.55
2022-07-29T05:31:57.355Z,23.60
2022-07-29T05:34:26.058Z,23.75
2022-07-29T05:36:54.344Z,23.80
2022-07-29T05:39:22.635Z,23.93
2022-07-29T05:42:10.754Z,24.07
2022-07-29T05:44:40.540Z,24.24
2022-07-29T05:47:08.422Z,24.33
2022-07-29T05:49:36.386Z,24.51
2022-07-29T05:52:05.082Z,24.61
2022-07-29T05:54:33.054Z,24.67
2022-07-29T05:57:00.923Z,24.75
2022-07-29T05:59:30.640Z,24.80
2022-07-29T06:02:00.095Z,24.88
2022-07-29T06:04:28.494Z,24.92
2022-07-29T06:06:56.482Z,24.95
2022-07-29T06:09:24.791Z,24.94
2022-07-29T06:11:53.324Z,24.97
2022-07-29T06:14:21.668Z,24.98
2022-07-29T06:16:49.599Z,24.98
2022-07-29T06:19:19.149Z,25.00
2022-07-29T06:21:47.832Z,25.00
2022-07-29T06:24:17.475Z,24.98
2022-07-29T06:26:46.387Z,24.96
2022-07-29T06:29:14.260Z,24.86
2022-07-29T06:31:42.177Z,24.92
2022-07-29T06:34:10.496Z,25.01
2022-07-29T06:36:41.104Z,25.14
2022-07-29T06:39:11.695Z,25.19
2022-07-29T06:41:40.510Z,25.26
2022-07-29T06:44:10.677Z,25.33
2022-07-29T06:46:38.807Z,25.33
2022-07-29T06:49:07.117Z,25.38
2022-07-29T06:51:35.071Z,25.34
2022-07-29T06:54:06.437Z,25.40
2022-07-29T06:56:38.849Z,25.51
2022-07-29T06:59:09.653Z,25.51
2022-07-29T07:01:38.838Z,25.73
2022-07-29T07:04:07.030Z,25.92
2022-07-29T07:06:34.938Z,26.09
2022-07-29T07:09:05.191Z,26.25
2022-07-29T07:11:33.431Z,26.32
2022-07-29T07:14:03.708Z,26.43
2022-07-29T07:16:33.359Z,26.61
2022-07-29T07:19:01.772Z,26.71
2022-07-29T07:21:30.693Z,26.86
2022-07-29T07:24:00.255Z,27.07
2022-07-29T07:26:30.107Z,27.37
2022-07-29T07:28:58.787Z,27.46
2022-07-29T07:31:27.134Z,27.70
2022-07-29T07:33:55.202Z,27.80
2022-07-29T07:36:23.684Z,27.94
2022-07-29T07:38:51.964Z,28.24
2022-07-29T07:41:19.856Z,28.53
2022-07-29T07:43:49.153Z,28.77
2022-07-29T07:46:17.708Z,28.79
2022-07-29T07:48:45.727Z,28.89
2022-07-29T07:51:13.760Z,29.08
2022-07-29T07:53:42.106Z,29.03
2022-07-29T07:56:11.836Z,29.04
2022-07-29T07:58:40.859Z,29.30
2022-07-29T08:01:11.157Z,29.53
2022-07-29T08:03:39.958Z,29.67
2022-07-29T08:06:08.589Z,29.79
2022-07-29T08:08:36.517Z,30.04
2022-07-29T08:11:09.013Z,30.13
2022-07-29T08:13:38.618Z,30.26
2022-07-29T08:16:16.500Z,30.40
2022-07-29T08:18:46.163Z,30.79
2022-07-29T08:21:15.861Z,31.02
2022-07-29T08:23:57.628Z,31.12
2022-07-29T08:26:27.133Z,31.04
2022-07-29T08:28:55.026Z,30.91
2022-07-29T08:31:24.356Z,30.66
2022-07-29T08:33:52.557Z,30.59
2022-07-29T08:36:21.938Z,30.63
2022-07-29T08:38:50.477Z,30.72
2022-07-29T08:41:19.979Z,30.70
2022-07-29T08:43:48.302Z,30.71
2022-07-29T08:46:16.721Z,30.74
2022-07-29T08:48:46.587Z,30.98
2022-07-29T08:51:15.981Z,30.88
2022-07-29T08:53:45.989Z,30.97
2022-07-29T08:56:15.074Z,31.08
2022-07-29T08:58:43.551Z,31.07
2022-07-29T09:01:19.658Z,31.31
2022-07-29T09:03:51.512Z,31.27
2022-07-29T09:06:21.355Z,31.51
2022-07-29T09:08:49.672Z,31.70
2022-07-29T09:11:17.557Z,31.74
2022-07-29T09:13:46.122Z,31.80
2022-07-29T09:16:26.724Z,31.95
2022-07-29T09:19:03.795Z,32.18
2022-07-29T09:22:03.021Z,32.15
2022-07-29T09:24:41.004Z,32.12
2022-07-29T09:27:20.637Z,32.22
2022-07-29T09:29:49.028Z,32.36
2022-07-29T09:32:17.068Z,32.50
2022-07-29T09:34:46.276Z,32.58
2022-07-29T09:37:28.370Z,32.72
2022-07-29T09:39:56.639Z,32.92
2022-07-29T09:42:33.443Z,33.03
2022-07-29T09:45:01.426Z,32.95
2022-07-29T09:47:47.823Z,33.12
2022-07-29T09:50:20.747Z,33.41
2022-07-29T09:52:50.504Z,33.61
2022-07-29T09:55:19.846Z,33.80
2022-07-29T09:57:51.498Z,34.03
2022-07-29T10:00:21.470Z,34.18
2022-07-29T10:02:50.666Z,34.35
2022-07-29T10:05:22.310Z,34.48
2022-07-29T10:07:54.200Z,34.58
2022-07-29T10:10:29.467Z,34.69
2022-07-29T10:13:03.083Z,34.65
2022-07-29T10:15:40.050Z,34.46
2022-07-29T10:18:09.457Z,34.56
2022-07-29T10:20:39.731Z,34.61
2022-07-29T10:23:08.053Z,34.60
2022-07-29T10:25:36.209Z,34.82
2022-07-29T10:28:04.309Z,34.92
2022-07-29T10:30:33.096Z,34.82
2022-07-29T10:33:23.605Z,34.94
2022-07-29T10:36:06.974Z,34.84
2022-07-29T10:38:55.798Z,35.13
2022-07-29T10:41:47.542Z,35.10
2022-07-29T10:44:23.230Z,35.37
2022-07-29T10:46:53.391Z,35.55
2022-07-29T10:49:25.118Z,35.62
2022-07-29T10:52:06.712Z,35.66
2022-07-29T10:54:56.354Z,35.65
2022-07-29T10:57:53.994Z,35.77
2022-07-29T11:00:32.965Z,35.91
2022-07-29T11:03:04.668Z,35.91
2022-07-29T11:05:59.821Z,36.01
2022-07-29T11:08:29.874Z,35.90
2022-07-29T11:11:39.533Z,35.95
2022-07-29T11:14:12.262Z,35.88
2022-07-29T11:17:00.413Z,36.05
2022-07-29T11:19:30.473Z,36.17
2022-07-29T11:21:59.729Z,36.25
2022-07-29T11:24:32.037Z,36.37
2022-07-29T11:27:13.169Z,36.54
2022-07-29T11:29:50.421Z,36.73
2022-07-29T11:32:22.862Z,36.67
2022-07-29T11:35:22.291Z,36.66
2022-07-29T11:38:27.830Z,36.26
2022-07-29T11:41:23.670Z,36.50
2022-07-29T11:43:53.514Z,36.70
2022-07-29T11:46:47.732Z,36.90
2022-07-29T11:49:22.079Z,36.73
2022-07-29T11:52:02.335Z,36.77
2022-07-29T11:54:57.722Z,36.67
2022-07-29T11:57:36.525Z,36.85
2022-07-29T12:00:10.000Z,36.90
2022-07-29T12:02:43.801Z,36.98
2022-07-29T12:05:36.172Z,36.97
2022-07-29T12:08:14.536Z,36.87
2022-07-29T12:10:44.288Z,36.96
2022-07-29T12:13:14.447Z,36.99
2022-07-29T12:15:46.349Z,37.07
2022-07-29T12:18:18.669Z,37.16
2022-07-29T12:20:47.151Z,37.14
2022-07-29T12:23:17.382Z,37.00
2022-07-29T12:25:49.795Z,37.03
2022-07-29T12:28:27.401Z,37.20
2022-07-29T12:30:55.816Z,37.46
2022-07-29T12:33:28.427Z,37.64
2022-07-29T12:36:09.508Z,37.62
2022-07-29T12:38:42.486Z,37.57
2022-07-29T12:41:10.671Z,37.67
2022-07-29T12:43:39.852Z,38.01
2022-07-29T12:46:15.058Z,38.09
2022-07-29T12:48:45.475Z,38.35
2022-07-29T12:51:15.485Z,38.46
2022-07-29T12:53:43.623Z,38.57
2022-07-29T12:56:41.852Z,38.60
2022-07-29T12:59:21.199Z,38.45
2022-07-29T13:01:52.344Z,38.59
2022-07-29T13:04:28.685Z,38.91
2022-07-29T13:07:02.258Z,38.75
2022-07-29T13:09:40.630Z,39.02
2022-07-29T13:12:10.957Z,38.94
2022-07-29T13:14:43.050Z,38.75
2022-07-29T13:17:12.657Z,38.71
2022-07-29T13:19:42.685Z,39.17
2022-07-29T13:22:12.072Z,39.40
2022-07-29T13:24:51.309Z,38.92
2022-07-29T13:27:20.054Z,38.75
2022-07-29T13:29:52.209Z,38.60
2022-07-29T13:32:20.447Z,38.50
2022-07-29T13:34:57.118Z,38.48
2022-07-29T13:37:25.735Z,38.50
2022-07-29T13:39:55.090Z,38.51
2022-07-29T13:42:23.994Z,38.50
2022-07-29T13:44:53.456Z,38.41
2022-07-29T13:47:22.348Z,38.31
2022-07-29T13:50:00.199Z,38.22
2022-07-29T13:52:28.223Z,37.86
2022-07-29T13:54:56.246Z,37.51
2022-07-29T13:57:24.507Z,37.31
2022-07-29T13:59:54.554Z,37.15
2022-07-29T14:02:25.869Z,36.80
2022-07-29T14:04:54.774Z,36.99
2022-07-29T14:07:23.368Z,37.53
2022-07-29T14:09:51.484Z,38.10
2022-07-29T14:12:20.079Z,38.38
2022-07-29T14:14:48.057Z,38.53
2022-07-29T14:17:17.901Z,38.57
2022-07-29T14:19:46.149Z,38.48
2022-07-29T14:22:14.424Z,38.58
2022-07-29T14:24:43.279Z,38.59
2022-07-29T14:27:11.553Z,38.54
2022-07-29T14:29:39.685Z,38.38
2022-07-29T14:32:08.590Z,38.49
2022-07-29T14:34:39.124Z,38.48
2022-07-29T14:37:07.795Z,38.48
2022-07-29T14:39:42.351Z,38.66
2022-07-29T14:42:12.435Z,38.67
2022-07-29T14:44:42.253Z,38.63
2022-07-29T14:47:11.239Z,38.35
2022-07-29T14:49:42.816Z,38.43
2022-07-29T14:52:10.983Z,38.85
2022-07-29T14:54:39.033Z,39.07
2022-07-29T14:57:07.079Z,39.17
2022-07-29T14:59:35.294Z,39.19
2022-07-29T15:02:03.659Z,39.24
2022-07-29T15:04:32.498Z,39.03
2022-07-29T15:07:02.039Z,38.89
2022-07-29T15:09:29.972Z,38.67
2022-07-29T15:11:58.159Z,38.46
2022-07-29T15:14:26.553Z,38.11
2022-07-29T15:16:54.534Z,38.07
2022-07-29T15:19:22.500Z,37.79
2022-07-29T15:21:50.794Z,37.67
2022-07-29T15:24:20.583Z,37.64
2022-07-29T15:26:48.972Z,37.63
2022-07-29T15:29:17.272Z,37.78
2022-07-29T15:31:45.395Z,38.11
2022-07-29T15:34:13.310Z,39.13
2022-07-29T15:36:52.025Z,40.50
2022-07-29T15:39:22.761Z,41.88
2022-07-29T15:41:51.775Z,43.01
2022-07-29T15:44:20.868Z,43.73
2022-07-29T15:47:04.953Z,44.31
2022-07-29T15:49:47.688Z,44.31
2022-07-29T15:52:25.332Z,44.13
2022-07-29T15:54:57.514Z,43.68
2022-07-29T15:57:25.931Z,42.74
2022-07-29T15:59:54.378Z,42.07
2022-07-29T16:02:22.361Z,42.21
2022-07-29T16:04:50.696Z,43.03
2022-07-29T16:07:19.026Z,43.63
2022-07-29T16:09:52.495Z,43.99
2022-07-29T16:12:22.626Z,44.00
2022-07-29T16:14:51.220Z,43.88
2022-07-29T16:17:20.003Z,43.45
2022-07-29T16:19:48.246Z,42.86
2022-07-29T16:22:16.505Z,42.21
2022-07-29T16:24:44.647Z,42.36
2022-07-29T16:27:12.808Z,42.55
2022-07-29T16:29:42.019Z,42.22
2022-07-29T16:32:09.990Z,41.51
2022-07-29T16:34:38.160Z,40.86
2022-07-29T16:37:06.038Z,40.59
2022-07-29T16:39:34.014Z,40.90
2022-07-29T16:42:05.026Z,41.32
2022-07-29T16:44:34.858Z,41.54
2022-07-29T16:47:05.744Z,41.42
2022-07-29T16:49:33.604Z,40.94
2022-07-29T16:52:01.780Z,40.34
2022-07-29T16:54:29.960Z,39.78
2022-07-29T16:57:00.577Z,39.32
2022-07-29T16:59:29.478Z,38.78
2022-07-29T17:01:57.855Z,38.34
2022-07-29T17:04:28.526Z,37.80
2022-07-29T17:06:57.138Z,37.46
2022-07-29T17:09:25.513Z,37.12
2022-07-29T17:11:55.072Z,36.79
2022-07-29T17:14:25.751Z,36.53
2022-07-29T17:17:00.118Z,36.32
2022-07-29T17:19:31.962Z,36.05
2022-07-29T17:22:09.405Z,35.81
2022-07-29T17:24:40.944Z,35.58
2022-07-29T17:27:09.657Z,35.38
2022-07-29T17:29:38.707Z,35.17
2022-07-29T17:32:08.045Z,35.00
2022-07-29T17:34:38.085Z,34.84
2022-07-29T17:37:08.216Z,34.63
2022-07-29T17:39:36.489Z,34.63
2022-07-29T17:42:05.696Z,34.57
2022-07-29T17:44:36.331Z,34.46
2022-07-29T17:47:05.121Z,34.35
2022-07-29T17:49:36.312Z,34.32
2022-07-29T17:52:07.264Z,34.19
2022-07-29T17:54:35.479Z,34.11
2022-07-29T17:57:03.450Z,34.00
2022-07-29T17:59:31.764Z,33.93
2022-07-29T18:02:00.003Z,33.81
2022-07-29T18:04:29.158Z,33.73
2022-07-29T18:06:57.451Z,33.64
2022-07-29T18:09:26.922Z,33.53
2022-07-29T18:11:55.053Z,33.37
2022-07-29T18:14:22.962Z,33.25
2022-07-29T18:16:50.994Z,33.13
2022-07-29T18:19:19.210Z,33.04
2022-07-29T18:21:54.533Z,32.93
2022-07-29T18:24:25.549Z,32.80
2022-07-29T18:26:55.153Z,32.69
2022-07-29T18:29:23.212Z,32.59
2022-07-29T18:31:51.378Z,32.47
2022-07-29T18:34:19.340Z,32.37
2022-07-29T18:36:47.329Z,32.23
2022-07-29T18:39:20.884Z,32.14
2022-07-29T18:41:51.068Z,32.03
2022-07-29T18:44:22.587Z,31.87
2022-07-29T18:46:51.942Z,31.70
2022-07-29T18:49:20.679Z,31.56
2022-07-29T18:51:49.291Z,31.44
2022-07-29T18:54:18.255Z,31.33
2022-07-29T18:56:47.491Z,31.24
2022-07-29T18:59:19.565Z,31.14
2022-07-29T19:01:49.557Z,31.00
2022-07-29T19:04:18.193Z,30.86
2022-07-29T19:06:46.449Z,30.76
2022-07-29T19:09:14.820Z,30.65
2022-07-29T19:11:42.708Z,30.51
2022-07-29T19:14:10.806Z,30.31
2022-07-29T19:16:39.061Z,30.18
2022-07-29T19:19:10.044Z,30.07
2022-07-29T19:21:40.697Z,29.96
2022-07-29T19:24:13.570Z,29.95
2022-07-29T19:26:46.711Z,29.87
2022-07-29T19:29:16.064Z,29.76
2022-07-29T19:31:44.737Z,29.57
2022-07-29T19:34:14.132Z,29.47
2022-07-29T19:36:42.202Z,29.37
2022-07-29T19:39:10.396Z,29.28
2022-07-29T19:41:38.727Z,29.20
2022-07-29T19:44:06.720Z,29.19
2022-07-29T19:46:34.892Z,29.07
2022-07-29T19:49:02.855Z,29.00
2022-07-29T19:51:32.214Z,29.00
2022-07-29T19:54:00.514Z,28.98
2022-07-29T19:56:30.079Z,28.95
2022-07-29T19:58:58.616Z,28.93
2022-07-29T20:01:26.758Z,28.94
2022-07-29T20:03:54.948Z,28.91
2022-07-29T20:06:23.083Z,28.87
2022-07-29T20:08:56.708Z,28.83
2022-07-29T20:11:27.389Z,28.79
2022-07-29T20:13:55.298Z,28.75
2022-07-29T20:16:25.789Z,28.71
2022-07-29T20:18:53.958Z,28.66
2022-07-29T20:21:21.908Z,28.63
2022-07-29T20:23:49.787Z,28.62
2022-07-29T20:26:19.722Z,28.61
2022-07-29T20:28:49.483Z,28.57
2022-07-29T20:31:18.814Z,28.52
2022-07-29T20:33:46.849Z,28.51
2022-07-29T20:36:15.487Z,28.49
2022-07-29T20:38:43.707Z,28.48
2022-07-29T20:41:11.641Z,28.44
2022-07-29T20:43:40.958Z,28.43
2022-07-29T20:46:10.010Z,28.40
2022-07-29T20:48:39.632Z,28.38
2022-07-29T20:51:08.078Z,28.38
2022-07-29T20:53:38.171Z,28.35
2022-07-29T20:56:06.695Z,28.30
2022-07-29T20:58:36.201Z,28.24
2022-07-29T21:01:06.480Z,28.20
2022-07-29T21:03:34.511Z,28.22
2022-07-29T21:06:03.292Z,28.22
2022-07-29T21:08:32.061Z,28.26
2022-07-29T21:11:00.035Z,28.28
2022-07-29T21:13:28.343Z,28.30
2022-07-29T21:16:00.964Z,28.31
2022-07-29T21:18:32.619Z,28.28
2022-07-29T21:21:02.120Z,28.23
2022-07-29T21:23:30.886Z,28.21
2022-07-29T21:25:59.012Z,28.19
2022-07-29T21:28:36.874Z,28.17
2022-07-29T21:31:08.331Z,28.13
2022-07-29T21:33:38.335Z,28.06
2022-07-29T21:36:42.429Z,27.98
2022-07-29T21:38:56.651Z,27.90
2022-07-29T21:41:24.878Z,27.79
2022-07-29T21:43:53.803Z,27.68
2022-07-29T21:46:24.429Z,27.71
2022-07-29T21:48:54.024Z,27.79
2022-07-29T21:51:21.951Z,27.87
2022-07-29T21:53:50.610Z,27.92
2022-07-29T21:56:21.078Z,27.93
2022-07-29T21:58:51.743Z,27.96
2022-07-29T22:01:19.751Z,28.04
2022-07-29T22:03:47.961Z,27.99
2022-07-29T22:06:18.072Z,27.96
2022-07-29T22:08:47.884Z,28.03
2022-07-29T22:11:16.307Z,27.91
2022-07-29T22:13:44.196Z,27.90
2022-07-29T22:16:14.829Z,27.80
2022-07-29T22:18:45.021Z,27.77
2022-07-29T22:21:13.626Z,27.65
2022-07-29T22:23:43.115Z,27.64
2022-07-29T22:26:11.235Z,27.62
2022-07-29T22:28:39.117Z,27.60
2022-07-29T22:31:08.616Z,27.53
2022-07-29T22:33:37.112Z,27.53
2022-07-29T22:36:05.460Z,27.40
2022-07-29T22:38:33.838Z,27.33
2022-07-29T22:41:03.363Z,27.26
2022-07-29T22:43:31.391Z,27.11
2022-07-29T22:45:59.443Z,27.09
2022-07-29T22:48:28.118Z,27.06
2022-07-29T22:50:56.163Z,27.02
2022-07-29T22:53:24.073Z,26.99
2022-07-29T22:55:52.222Z,26.96
2022-07-29T22:58:21.619Z,26.91
2022-07-29T23:00:49.601Z,26.85
2022-07-29T23:03:17.851Z,26.79
2022-07-29T23:05:45.771Z,26.72
2022-07-29T23:08:13.698Z,26.62
2022-07-29T23:10:42.215Z,26.58
2022-07-29T23:13:10.087Z,26.48
2022-07-29T23:15:39.587Z,26.35
2022-07-29T23:18:08.113Z,26.27
2022-07-29T23:20:36.812Z,26.16
2022-07-29T23:23:04.916Z,26.08
2022-07-29T23:25:33.436Z,25.95
2022-07-29T23:28:01.648Z,25.87
2022-07-29T23:30:30.150Z,25.84
2022-07-29T23:32:59.816Z,25.82
2022-07-29T23:35:28.322Z,25.81
2022-07-29T23:37:56.221Z,25.78
2022-07-29T23:40:24.457Z,25.74
2022-07-29T23:42:52.347Z,25.70
2022-07-29T23:45:20.227Z,25.66
2022-07-29T23:47:48.349Z,25.63
2022-07-29T23:50:17.595Z,25.60
2022-07-29T23:52:45.526Z,25.59
2022-07-29T23:55:36.578Z,25.58
2022-07-29T23:58:03.030Z,25.56
